Terminal Aerodrome Forecast
Issued by NWS Cleveland, OH

Home | Current Version | Previous Version | Graphics & Text | Print | Product List | Glossary On
Versions: 1 2 3 4 5 6 7 8 9 10 11 12
000
FTUS41 KCLE 312324
TAFTOL
TAF
KTOL 312324Z 0100/0124 27008KT P6SM FEW080
     FM011700 27012G20KT P6SM SCT050
     FM012300 28010KT P6SM FEW050=

USA.gov is the U.S. government's official web portal to all federal, state and local government web resources and services.